Time;durP1;ratioP1;P1;durP2;ratioP2;P2;SDS_P1;SDS_P2;PMS_P1;PMS_P2;Temp;Humidity;BMP_temperature;BMP_pressure;BME280_temperature;BME280_humidity;BME280_pressure;Samples;Min_cycle;Max_cycle;Signal;HPM_P1;HPM_P2
2021/12/30 00:01:24;;;;;;;59.92;6.15;;;8.70;99.90;;;;;;4842257;29;20107;-96
2021/12/30 00:09:03;;;;;;;59.25;6.25;;;8.70;99.90;;;;;;5104895;23;20042;-96
2021/12/30 00:12:17;;;;;;;51.70;6.55;;;8.70;99.90;;;;;;5113052;23;22018;-96
2021/12/30 00:16:02;;;;;;;48.30;6.53;;;8.70;99.90;;;;;;5014611;23;20061;-96
2021/12/30 00:23:35;;;;;;;49.20;6.15;;;8.60;99.90;;;;;;4990634;23;20032;-96
2021/12/30 00:30:35;;;;;;;53.28;6.25;;;8.50;99.90;;;;;;5442477;23;20056;-96
2021/12/30 00:33:04;;;;;;;55.40;6.13;;;8.40;99.90;;;;;;4923343;29;20036;-96
2021/12/30 00:35:33;;;;;;;54.00;5.75;;;8.60;99.90;;;;;;4923143;29;20032;-96
2021/12/30 00:38:16;;;;;;;58.00;5.70;;;8.40;99.90;;;;;;4757947;23;20023;-94
2021/12/30 00:58:56;;;;;;;55.78;6.82;;;8.20;99.90;;;;;;5510239;23;20023;-96
2021/12/30 01:08:36;;;;;;;66.53;6.35;;;8.10;99.90;;;;;;5138319;23;20340;-92
2021/12/30 01:52:15;;;;;;;57.92;7.75;;;8.20;99.90;;;;;;4893270;23;20113;-96
2021/12/30 01:54:53;;;;;;;73.18;9.88;;;8.30;99.90;;;;;;4848332;29;20037;-95
2021/12/30 01:57:21;;;;;;;71.50;10.35;;;8.40;99.90;;;;;;4848634;29;20113;-96
2021/12/30 01:59:47;;;;;;;65.47;9.75;;;8.50;99.90;;;;;;4859277;29;20446;-96
2021/12/30 02:02:29;;;;;;;73.10;11.77;;;8.60;99.90;;;;;;5096056;23;20053;-96
2021/12/30 02:05:55;;;;;;;62.22;10.50;;;8.70;99.90;;;;;;4848739;29;20049;-96
2021/12/30 02:08:55;;;;;;;58.35;11.05;;;8.70;99.90;;;;;;4823188;29;20062;-96
2021/12/30 02:12:25;;;;;;;62.25;11.60;;;8.70;99.90;;;;;;4746383;30;20056;-96
2021/12/30 02:15:51;;;;;;;;;;;8.80;99.90;;;;;;4733939;30;20061;-96
2021/12/30 02:18:24;;;;;;;64.15;11.52;;;8.80;99.90;;;;;;4710909;30;19930;-96
2021/12/30 02:20:55;;;;;;;65.97;14.90;;;8.90;99.90;;;;;;4713948;30;20061;-96
2021/12/30 02:23:24;;;;;;;72.70;13.70;;;8.90;99.90;;;;;;4697516;30;20122;-96
2021/12/30 02:25:53;;;;;;;80.30;14.48;;;8.90;99.90;;;;;;4711382;30;20100;-96
2021/12/30 02:28:28;;;;;;;85.53;15.55;;;9.00;99.90;;;;;;4714529;30;20087;-96
2021/12/30 02:30:56;;;;;;;65.97;15.63;;;9.00;99.90;;;;;;4715344;30;20098;-96
2021/12/30 02:33:28;;;;;;;70.18;15.63;;;9.10;99.90;;;;;;4704218;30;20071;-96
2021/12/30 02:35:55;;;;;;;71.68;15.65;;;9.20;99.90;;;;;;4703546;30;20053;-96
2021/12/30 02:38:22;;;;;;;67.95;15.95;;;9.10;99.90;;;;;;4717108;30;20056;-95
2021/12/30 02:40:57;;;;;;;84.75;17.13;;;9.10;99.90;;;;;;4720097;30;20047;-96
2021/12/30 02:48:03;;;;;;;81.20;16.40;;;9.10;99.90;;;;;;4798303;29;20050;-95
2021/12/30 02:54:48;;;;;;;84.93;18.45;;;9.20;99.90;;;;;;4803366;29;20038;-96
2021/12/30 02:57:16;;;;;;;96.63;17.30;;;9.40;99.90;;;;;;4771644;30;20063;-96
2021/12/30 02:59:42;;;;;;;93.80;17.70;;;9.20;99.90;;;;;;4787882;30;20058;-96
2021/12/30 03:02:32;;;;;;;74.32;16.77;;;9.50;99.90;;;;;;4775038;29;20051;-96
2021/12/30 03:05:21;;;;;;;81.15;17.38;;;9.50;99.90;;;;;;4738473;30;20056;-96
2021/12/30 03:07:47;;;;;;;90.53;18.23;;;9.50;99.90;;;;;;4738087;30;20116;-96
2021/12/30 03:10:15;;;;;;;78.00;17.33;;;9.70;99.90;;;;;;4726673;30;20091;-96
2021/12/30 03:12:44;;;;;;;89.35;18.67;;;9.60;99.90;;;;;;4729981;30;20479;-96
2021/12/30 03:15:14;;;;;;;86.68;17.85;;;9.70;99.90;;;;;;4730561;30;20104;-96
2021/12/30 03:17:44;;;;;;;82.70;17.25;;;9.60;99.90;;;;;;4734372;30;20056;-96
2021/12/30 03:20:13;;;;;;;68.70;15.07;;;9.60;99.90;;;;;;4722040;30;20247;-96
2021/12/30 03:23:10;;;;;;;81.43;16.77;;;9.70;99.90;;;;;;4744514;30;20060;-96
2021/12/30 03:34:19;;;;;;;72.72;16.13;;;9.70;99.90;;;;;;4719783;30;20674;-96
2021/12/30 03:40:25;;;;;;;71.03;16.30;;;9.80;99.90;;;;;;4842699;23;20142;-96
2021/12/30 03:43:50;;;;;;;97.50;16.95;;;9.80;99.90;;;;;;4878134;23;20088;-96
2021/12/30 03:47:38;;;;;;;81.30;16.05;;;9.80;99.90;;;;;;4807089;30;20070;-95
2021/12/30 03:51:25;;;;;;;80.88;15.63;;;9.80;99.90;;;;;;4806236;29;20053;-96
2021/12/30 03:54:00;;;;;;;66.78;14.30;;;9.90;99.90;;;;;;4953612;24;20066;-96
2021/12/30 03:56:31;;;;;;;81.32;15.63;;;9.90;99.90;;;;;;4861144;29;20050;-96
2021/12/30 03:59:00;;;;;;;66.78;15.63;;;10.00;99.90;;;;;;4861994;29;20081;-94
2021/12/30 04:01:33;;;;;;;81.63;16.98;;;9.90;99.90;;;;;;4845105;29;20065;-96
2021/12/30 04:03:59;;;;;;;84.65;15.93;;;10.00;99.90;;;;;;4844511;29;20053;-96
2021/12/30 04:06:31;;;;;;;83.88;14.57;;;10.00;99.90;;;;;;4856260;29;20042;-96
2021/12/30 04:09:21;;;;;;;75.53;15.10;;;10.00;99.90;;;;;;4813552;29;20060;-96
2021/12/30 04:11:54;;;;;;;85.93;17.00;;;10.10;99.90;;;;;;4833157;29;20054;-96
2021/12/30 04:14:20;;;;;;;84.72;16.38;;;10.10;99.90;;;;;;4889771;23;20061;-96
2021/12/30 04:16:48;;;;;;;94.28;15.75;;;10.20;99.90;;;;;;4894626;24;20058;-96
2021/12/30 04:19:23;;;;;;;91.80;16.02;;;10.20;99.90;;;;;;4831094;29;20054;-96
2021/12/30 04:21:54;;;;;;;93.50;15.95;;;10.10;99.90;;;;;;4858640;29;20049;-96
2021/12/30 04:24:23;;;;;;;90.57;17.25;;;10.30;99.90;;;;;;4828140;29;20085;-96
2021/12/30 04:26:52;;;;;;;105.85;17.27;;;10.40;99.90;;;;;;4841888;29;20053;-96
2021/12/30 04:29:27;;;;;;;68.18;14.05;;;10.40;99.90;;;;;;4863192;29;20063;-96
2021/12/30 04:31:53;;;;;;;72.50;16.20;;;10.40;99.90;;;;;;4844067;29;20057;-96
2021/12/30 04:34:19;;;;;;;88.50;18.15;;;10.50;99.90;;;;;;4842177;29;20077;-96
2021/12/30 04:36:47;;;;;;;98.97;19.63;;;10.50;99.90;;;;;;4848709;29;20054;-96
2021/12/30 04:39:24;;;;;;;90.15;20.65;;;10.40;99.90;;;;;;4930241;24;20160;-96
2021/12/30 04:41:51;;;;;;;81.60;18.65;;;10.60;99.90;;;;;;4799172;29;20039;-96
2021/12/30 04:44:21;;;;;;;71.53;17.45;;;10.60;99.90;;;;;;4825379;29;20073;-96
2021/12/30 05:05:25;;;;;;;67.32;17.92;;;10.90;99.90;;;;;;5374452;23;20033;-96
2021/12/30 05:33:51;;;;;;;99.70;23.30;;;11.10;99.90;;;;;;1390805;23;21163;-95
2021/12/30 05:48:36;;;;;;;82.50;21.20;;;11.10;99.90;;;;;;4874118;29;20096;-96
2021/12/30 05:52:56;;;;;;;82.70;20.48;;;11.30;99.90;;;;;;4853758;23;20214;-96
2021/12/30 05:59:53;;;;;;;98.95;22.20;;;11.40;99.90;;;;;;4800675;29;20115;-96
2021/12/30 06:03:23;;;;;;;114.77;24.80;;;11.50;99.90;;;;;;4790891;30;20054;-96
2021/12/30 06:05:50;;;;;;;;;;;11.50;99.90;;;;;;4753017;29;20313;-95
2021/12/30 06:08:19;;;;;;;89.35;23.83;;;11.70;99.90;;;;;;4754349;30;20373;-95
2021/12/30 06:10:45;;;;;;;86.82;22.80;;;11.60;99.90;;;;;;4752205;30;20066;-95
2021/12/30 06:13:15;;;;;;;83.10;23.83;;;11.60;99.90;;;;;;4756856;29;20056;-96
2021/12/30 06:15:41;;;;;;;105.35;24.67;;;11.60;99.90;;;;;;4752408;30;20631;-96
2021/12/30 06:18:28;;;;;;;97.30;22.55;;;11.70;99.90;;;;;;4879723;24;20049;-95
2021/12/30 06:25:33;;;;;;;86.10;22.17;;;11.70;99.90;;;;;;4904022;23;20073;31
2021/12/30 06:28:37;;;;;;;78.82;21.35;;;11.70;99.90;;;;;;4790365;29;20062;-95
2021/12/30 06:31:06;;;;;;;181.45;24.42;;;11.80;99.90;;;;;;4780848;30;20051;-96
2021/12/30 06:33:47;;;;;;;63.47;18.88;;;11.80;99.90;;;;;;4752373;30;20059;-96
2021/12/30 06:36:17;;;;;;;69.10;19.88;;;11.80;99.90;;;;;;4780330;30;20077;-96
2021/12/30 06:38:46;;;;;;;68.22;19.95;;;11.80;99.90;;;;;;4800145;29;20130;-95
2021/12/30 06:41:24;;;;;;;67.82;19.17;;;11.80;99.90;;;;;;4777137;30;20076;-95
2021/12/30 06:44:40;;;;;;;76.68;20.38;;;11.80;99.90;;;;;;4780472;30;20134;-96
2021/12/30 06:47:20;;;;;;;55.10;17.85;;;11.80;99.90;;;;;;4745049;30;20051;-96
2021/12/30 06:49:48;;;;;;;80.07;19.15;;;11.80;99.90;;;;;;4771092;29;20108;-95
2021/12/30 06:52:15;;;;;;;54.58;17.65;;;11.80;99.90;;;;;;4758057;29;20048;-96
2021/12/30 06:54:53;;;;;;;63.50;16.98;;;11.70;99.90;;;;;;5171076;23;20054;-96
2021/12/30 06:57:23;;;;;;;50.15;14.95;;;12.00;99.90;;;;;;5391729;23;20086;-96
2021/12/30 07:00:10;;;;;;;39.30;14.60;;;11.70;99.90;;;;;;4880931;24;20064;-96
2021/12/30 07:03:03;;;;;;;39.30;13.32;;;11.70;99.90;;;;;;4794168;29;20055;-94
2021/12/30 07:05:56;;;;;;;46.90;13.25;;;11.70;99.90;;;;;;4897762;24;20058;-96
2021/12/30 07:08:23;;;;;;;40.67;13.05;;;11.80;99.90;;;;;;5316385;23;20061;-95
2021/12/30 07:10:50;;;;;;;44.50;11.57;;;11.80;99.90;;;;;;4864830;29;20061;-96
2021/12/30 07:14:03;;;;;;;31.15;10.55;;;11.80;99.90;;;;;;4844879;29;20074;-96
2021/12/30 07:16:42;;;;;;;19.25;8.63;;;11.80;99.90;;;;;;4767070;29;20107;-96
2021/12/30 07:19:14;;;;;;;23.30;8.95;;;11.70;99.90;;;;;;4795220;29;20161;-92
2021/12/30 07:22:16;;;;;;;22.67;8.15;;;11.80;99.90;;;;;;4806589;29;20058;-96
2021/12/30 07:24:57;;;;;;;20.58;7.35;;;11.80;99.90;;;;;;4760212;30;20052;-93
2021/12/30 07:27:25;;;;;;;19.73;7.10;;;11.80;99.90;;;;;;4728132;30;20466;-94
2021/12/30 07:30:18;;;;;;;28.27;8.55;;;11.80;99.90;;;;;;4773526;30;20059;-96
2021/12/30 07:33:05;;;;;;;12.43;6.10;;;11.80;99.90;;;;;;4726205;30;20060;-93
2021/12/30 07:36:30;;;;;;;17.35;6.90;;;11.80;99.90;;;;;;4707203;30;20064;-95
2021/12/30 07:46:59;;;;;;;11.18;5.80;;;11.90;99.90;;;;;;4644062;31;20050;-96
2021/12/30 07:49:36;;;;;;;18.83;6.75;;;11.80;99.90;;;;;;4627020;30;20059;-96
2021/12/30 07:52:08;;;;;;;16.17;6.82;;;11.90;99.90;;;;;;4625633;31;20132;-95
2021/12/30 07:55:22;;;;;;;9.90;6.30;;;11.80;99.90;;;;;;4621742;31;20193;-95
2021/12/30 07:57:57;;;;;;;13.00;6.15;;;11.90;99.90;;;;;;4610260;31;20508;-95
2021/12/30 08:00:25;;;;;;;9.80;4.72;;;11.90;99.90;;;;;;4620581;31;20063;-96
2021/12/30 08:02:51;;;;;;;17.50;6.22;;;11.80;99.90;;;;;;4627498;30;20063;-91
2021/12/30 08:05:18;;;;;;;13.55;5.28;;;11.90;99.90;;;;;;4670087;30;20069;-93
2021/12/30 08:07:48;;;;;;;14.55;6.10;;;11.90;99.90;;;;;;4718669;30;20064;-94
2021/12/30 08:10:22;;;;;;;18.30;6.63;;;12.10;99.90;;;;;;4761144;30;20106;-93
2021/12/30 08:12:50;;;;;;;19.13;7.72;;;12.00;99.90;;;;;;4769906;30;20301;-93
2021/12/30 08:15:17;;;;;;;19.98;8.68;;;11.90;99.90;;;;;;4777867;30;20086;-92
2021/12/30 08:17:48;;;;;;;24.67;9.00;;;12.00;99.90;;;;;;4800665;29;20141;-93
2021/12/30 08:20:14;;;;;;;;;;;12.10;99.90;;;;;;4833894;29;20410;-93
2021/12/30 08:22:40;;;;;;;24.63;11.35;;;12.00;99.90;;;;;;4864366;29;20043;-95
2021/12/30 08:25:49;;;;;;;33.50;12.48;;;12.00;99.90;;;;;;4834058;29;20056;-95
2021/12/30 08:28:17;;;;;;;35.17;13.55;;;12.00;99.90;;;;;;4835413;29;20137;-96
2021/12/30 08:30:43;;;;;;;37.67;13.55;;;12.00;99.90;;;;;;4827985;29;20105;-93
2021/12/30 08:33:09;;;;;;;30.23;13.25;;;12.00;99.90;;;;;;4847024;29;20045;-96
2021/12/30 08:35:45;;;;;;;46.72;15.77;;;12.20;99.90;;;;;;4850914;29;20076;-95
2021/12/30 08:38:14;;;;;;;41.17;14.68;;;12.10;99.90;;;;;;4836691;29;21482;-96
2021/12/30 08:40:40;;;;;;;51.78;16.08;;;12.10;99.90;;;;;;4843070;29;20045;-93
2021/12/30 08:43:16;;;;;;;37.40;16.05;;;12.10;99.90;;;;;;4847055;29;20029;-96
2021/12/30 08:45:51;;;;;;;37.95;15.35;;;12.10;99.90;;;;;;4842484;29;20066;-93
2021/12/30 08:48:19;;;;;;;54.45;18.17;;;12.10;99.90;;;;;;4840842;29;20049;-96
2021/12/30 08:50:45;;;;;;;32.60;14.18;;;12.10;99.90;;;;;;4844791;29;20041;-94
2021/12/30 08:53:15;;;;;;;51.60;17.50;;;12.10;99.90;;;;;;4840957;29;20419;-96
2021/12/30 08:56:18;;;;;;;41.45;16.73;;;12.10;99.90;;;;;;4830802;29;20456;-96
2021/12/30 08:58:46;;;;;;;39.95;16.65;;;12.10;99.90;;;;;;4846538;29;20414;-96
2021/12/30 09:01:12;;;;;;;44.10;17.52;;;12.10;99.90;;;;;;4819418;29;20114;-96
2021/12/30 09:03:40;;;;;;;42.95;17.33;;;12.10;99.90;;;;;;4827699;29;20052;-96
2021/12/30 09:06:11;;;;;;;50.97;16.98;;;12.10;99.90;;;;;;4824807;29;20050;-96
2021/12/30 09:08:39;;;;;;;39.47;16.50;;;12.10;99.90;;;;;;4837682;29;20066;-95
2021/12/30 09:11:05;;;;;;;39.03;16.45;;;12.10;99.90;;;;;;4824468;29;20054;-95
2021/12/30 09:13:34;;;;;;;40.58;18.55;;;12.10;99.90;;;;;;4838469;29;20050;-96
2021/12/30 09:16:01;;;;;;;35.67;15.50;;;12.10;99.90;;;;;;4834305;29;20077;-96
2021/12/30 09:18:27;;;;;;;32.70;16.73;;;12.10;99.90;;;;;;4840236;29;20054;-95
2021/12/30 09:20:53;;;;;;;37.65;17.80;;;12.20;99.90;;;;;;4820324;29;20045;-95
2021/12/30 09:23:23;;;;;;;40.17;17.70;;;12.20;99.90;;;;;;4837906;29;20061;-96
2021/12/30 09:25:52;;;;;;;37.30;17.37;;;12.10;99.90;;;;;;4835119;29;20384;-96
2021/12/30 09:28:21;;;;;;;39.35;18.02;;;12.10;99.90;;;;;;4834108;29;20042;-96
2021/12/30 09:30:47;;;;;;;44.08;18.25;;;12.10;99.90;;;;;;4825517;29;20046;-95
2021/12/30 09:33:23;;;;;;;47.88;18.55;;;12.10;99.90;;;;;;4836253;29;20049;-96
2021/12/30 09:36:01;;;;;;;48.90;18.20;;;12.30;99.90;;;;;;4820757;29;20049;-96
2021/12/30 09:38:30;;;;;;;56.97;18.40;;;12.10;99.90;;;;;;4825204;29;20054;-95
2021/12/30 09:40:56;;;;;;;44.67;18.13;;;12.10;99.90;;;;;;4823806;29;20053;-96
2021/12/30 09:43:24;;;;;;;37.88;16.38;;;12.10;99.90;;;;;;4822433;29;20049;-92
2021/12/30 09:45:50;;;;;;;37.35;15.35;;;12.10;99.90;;;;;;4821376;29;20392;-94
2021/12/30 09:48:16;;;;;;;33.47;14.75;;;12.10;99.90;;;;;;4828312;29;20464;-92
2021/12/30 09:50:45;;;;;;;34.78;16.00;;;12.20;99.90;;;;;;4813042;29;20107;-92
2021/12/30 09:53:12;;;;;;;35.13;15.20;;;12.10;99.90;;;;;;4813027;29;20083;-95
2021/12/30 09:55:38;;;;;;;35.72;15.27;;;12.10;99.90;;;;;;4798956;29;20515;-96
2021/12/30 09:58:29;;;;;;;56.33;17.38;;;12.10;99.90;;;;;;4819698;29;20063;-96
2021/12/30 10:00:57;;;;;;;37.45;14.55;;;12.10;99.90;;;;;;4839470;29;20401;-92
2021/12/30 10:03:23;;;;;;;35.95;15.48;;;12.10;99.90;;;;;;4838758;29;20037;-93
2021/12/30 10:05:53;;;;;;;34.38;13.60;;;12.10;99.90;;;;;;4816851;29;20091;-95
2021/12/30 10:08:32;;;;;;;37.67;13.98;;;12.10;99.90;;;;;;4815487;29;20511;-95
2021/12/30 10:11:11;;;;;;;38.92;13.85;;;12.10;99.90;;;;;;4844570;29;20075;-96
2021/12/30 10:13:39;;;;;;;28.90;12.10;;;12.20;99.90;;;;;;4835202;29;20048;-96
2021/12/30 10:16:15;;;;;;;34.53;12.43;;;12.20;99.90;;;;;;4823056;29;20045;-96
2021/12/30 10:19:10;;;;;;;30.40;10.32;;;12.30;99.90;;;;;;4829798;29;20398;-95
2021/12/30 10:21:39;;;;;;;29.88;11.00;;;12.20;99.90;;;;;;4778865;29;20050;-93
2021/12/30 10:24:12;;;;;;;33.50;11.10;;;12.20;99.90;;;;;;4797236;29;20050;-91
2021/12/30 10:26:59;;;;;;;30.05;9.57;;;12.20;99.90;;;;;;4805289;29;20096;-93
2021/12/30 10:29:26;;;;;;;35.92;10.85;;;12.30;99.90;;;;;;4805615;29;20047;-93
2021/12/30 10:31:53;;;;;;;41.15;11.13;;;12.10;99.90;;;;;;4826184;29;20070;-95
2021/12/30 10:34:47;;;;;;;32.03;10.98;;;12.20;99.90;;;;;;4794519;29;20419;-92
2021/12/30 10:37:20;;;;;;;29.60;9.27;;;12.20;99.90;;;;;;4756481;30;20074;-94
2021/12/30 10:39:46;;;;;;;41.60;10.70;;;12.20;99.90;;;;;;4736355;30;20163;-93
2021/12/30 10:42:21;;;;;;;35.90;9.98;;;12.30;99.90;;;;;;4748360;30;20145;-93
2021/12/30 10:45:04;;;;;;;41.05;10.88;;;12.30;99.90;;;;;;4743296;30;20067;-93
2021/12/30 10:47:49;;;;;;;47.28;10.95;;;12.30;99.90;;;;;;4731886;30;20059;-96
2021/12/30 10:50:19;;;;;;;49.80;10.95;;;12.30;99.90;;;;;;4739563;30;20426;-93
2021/12/30 10:52:51;;;;;;;45.20;11.27;;;12.10;99.90;;;;;;4750328;30;20067;-92
2021/12/30 10:55:18;;;;;;;39.38;9.85;;;12.30;99.90;;;;;;4753446;30;20044;-94
2021/12/30 10:57:43;;;;;;;45.50;11.05;;;12.30;99.90;;;;;;4751944;29;20142;-94
2021/12/30 11:00:10;;;;;;;40.35;8.95;;;12.30;99.90;;;;;;4781177;29;20237;-95
2021/12/30 11:02:37;;;;;;;53.45;11.70;;;12.20;99.90;;;;;;4781873;29;20585;-96
2021/12/30 11:05:10;;;;;;;45.67;9.82;;;12.30;99.90;;;;;;4778748;29;20059;-96
2021/12/30 11:07:51;;;;;;;38.78;9.40;;;12.20;99.90;;;;;;4797043;29;20046;-94
2021/12/30 11:10:31;;;;;;;52.70;10.15;;;12.20;99.90;;;;;;4832098;29;20046;-96
2021/12/30 11:13:12;;;;;;;58.00;9.52;;;12.20;99.90;;;;;;4850523;29;20113;-93
2021/12/30 11:15:39;;;;;;;;;;;12.20;99.90;;;;;;4879895;29;20484;-95
2021/12/30 11:18:12;;;;;;;48.22;9.27;;;12.20;99.90;;;;;;4876865;29;20015;-94
2021/12/30 11:20:45;;;;;;;43.08;8.65;;;12.20;99.90;;;;;;4830812;29;20127;-93
2021/12/30 11:23:13;;;;;;;50.67;9.25;;;12.10;99.90;;;;;;4845514;29;20038;-90
2021/12/30 11:25:39;;;;;;;52.55;10.80;;;12.10;99.90;;;;;;4875889;29;20050;-95
2021/12/30 11:28:05;;;;;;;53.53;10.13;;;12.00;99.90;;;;;;4842417;29;20041;-94
2021/12/30 11:30:31;;;;;;;42.45;8.45;;;12.10;99.90;;;;;;4827523;29;20081;-96
2021/12/30 11:32:57;;;;;;;47.80;8.77;;;12.20;99.90;;;;;;4826651;29;20454;-90
2021/12/30 11:35:26;;;;;;;45.47;8.05;;;12.00;99.90;;;;;;4827293;29;20046;-94
2021/12/30 11:37:54;;;;;;;43.97;8.85;;;12.10;99.90;;;;;;4842480;29;20050;-91
2021/12/30 11:40:23;;;;;;;39.17;8.73;;;12.00;99.90;;;;;;4826914;29;20042;-94
2021/12/30 11:42:56;;;;;;;52.95;9.38;;;12.10;99.90;;;;;;4828163;29;20049;-93
2021/12/30 11:45:42;;;;;;;46.63;8.98;;;12.10;99.90;;;;;;4841251;29;20599;-94
2021/12/30 11:48:28;;;;;;;56.83;10.18;;;12.10;99.90;;;;;;4841292;29;20505;-96
2021/12/30 11:51:09;;;;;;;46.55;8.98;;;12.00;99.90;;;;;;4827787;29;20085;-93
2021/12/30 11:53:38;;;;;;;44.88;8.95;;;12.10;99.90;;;;;;4815594;29;20484;-93
2021/12/30 11:56:22;;;;;;;50.95;9.63;;;12.10;99.90;;;;;;4815451;29;20081;-95
2021/12/30 11:58:59;;;;;;;41.78;8.70;;;12.00;99.90;;;;;;4815260;29;20046;-94
2021/12/30 12:01:24;;;;;;;63.15;10.65;;;12.00;99.90;;;;;;4844697;29;20393;-93
2021/12/30 12:03:53;;;;;;;43.58;8.38;;;11.80;99.90;;;;;;4814506;29;20062;-94
2021/12/30 12:06:27;;;;;;;40.33;8.50;;;12.20;99.90;;;;;;4828951;29;20473;-91
2021/12/30 12:09:12;;;;;;;51.58;8.95;;;11.90;99.90;;;;;;4828794;29;20556;-94
2021/12/30 12:11:40;;;;;;;42.22;8.18;;;12.00;99.90;;;;;;4814136;29;20058;-93
2021/12/30 12:14:32;;;;;;;58.22;9.68;;;12.00;99.90;;;;;;4844983;29;20044;-91
2021/12/30 12:17:02;;;;;;;43.78;8.68;;;12.00;99.90;;;;;;4832583;29;20041;-95
2021/12/30 12:19:41;;;;;;;46.63;8.40;;;12.00;99.90;;;;;;4846947;29;20469;-96
2021/12/30 12:22:19;;;;;;;44.00;8.15;;;12.00;99.90;;;;;;4845083;29;20077;-94
2021/12/30 12:24:47;;;;;;;40.50;8.15;;;12.00;99.90;;;;;;4831720;29;20102;-92
2021/12/30 12:27:18;;;;;;;40.03;8.23;;;12.10;99.90;;;;;;4833059;29;20054;-96
2021/12/30 12:29:57;;;;;;;39.25;7.07;;;12.10;99.90;;;;;;4849138;29;20072;-93
2021/12/30 12:32:34;;;;;;;34.30;8.52;;;12.00;99.90;;;;;;4849487;29;20049;-96
2021/12/30 12:35:04;;;;;;;34.38;7.32;;;12.10;99.90;;;;;;4849378;29;20052;-94
2021/12/30 12:37:36;;;;;;;38.78;8.35;;;12.10;99.90;;;;;;4852176;29;20057;-96
2021/12/30 12:40:35;;;;;;;36.08;7.40;;;12.10;99.90;;;;;;4849284;29;20109;-96
2021/12/30 12:43:04;;;;;;;43.63;8.00;;;12.10;99.90;;;;;;4851066;29;20053;-94
2021/12/30 12:46:03;;;;;;;40.88;7.32;;;12.10;99.90;;;;;;4847126;29;20061;-95
2021/12/30 12:48:35;;;;;;;39.53;7.80;;;12.10;99.90;;;;;;4846824;29;20105;-95
2021/12/30 12:51:07;;;;;;;30.95;6.60;;;12.10;99.90;;;;;;4847042;29;20060;-93
2021/12/30 12:53:32;;;;;;;48.28;7.85;;;12.00;99.90;;;;;;4849160;29;20057;-93
2021/12/30 12:56:06;;;;;;;46.88;8.23;;;12.00;99.90;;;;;;4840407;29;20071;-94
2021/12/30 12:58:44;;;;;;;30.83;7.15;;;12.10;99.90;;;;;;4831504;29;20136;-93
2021/12/30 13:01:17;;;;;;;42.67;8.57;;;12.10;99.90;;;;;;4845754;29;20130;-93
2021/12/30 13:03:44;;;;;;;37.65;7.75;;;12.20;99.90;;;;;;4831233;29;20067;-94
2021/12/30 13:06:16;;;;;;;36.60;7.30;;;12.10;99.90;;;;;;4834273;29;20539;-95
2021/12/30 13:08:45;;;;;;;35.58;7.25;;;12.00;99.90;;;;;;4846023;29;20114;-95
2021/12/30 13:11:30;;;;;;;37.05;7.57;;;12.20;99.90;;;;;;4830676;29;20468;-96
2021/12/30 13:13:57;;;;;;;42.25;7.82;;;12.10;99.90;;;;;;4846216;29;20045;-96
2021/12/30 13:16:35;;;;;;;33.03;8.07;;;12.00;99.90;;;;;;4851386;29;20088;-96
2021/12/30 13:19:00;;;;;;;35.45;7.75;;;12.00;99.90;;;;;;4865788;29;20099;-96
2021/12/30 13:21:26;;;;;;;29.35;7.88;;;12.00;99.90;;;;;;4868182;29;20084;-96
2021/12/30 13:23:52;;;;;;;35.13;8.48;;;12.00;99.90;;;;;;4869005;29;20502;-96
2021/12/30 13:26:18;;;;;;;40.20;8.45;;;12.00;99.90;;;;;;4836032;29;20062;-95
2021/12/30 13:28:51;;;;;;;28.33;6.88;;;12.00;99.90;;;;;;4846649;29;20049;-94
2021/12/30 13:31:17;;;;;;;35.42;7.28;;;12.00;99.90;;;;;;4833549;29;20045;-95
2021/12/30 13:33:58;;;;;;;46.55;8.27;;;12.00;99.90;;;;;;4831228;29;20140;-96
2021/12/30 13:36:26;;;;;;;38.15;7.43;;;12.00;99.90;;;;;;4830340;29;20056;-94
2021/12/30 13:38:53;;;;;;;48.92;8.20;;;12.00;99.90;;;;;;4845123;29;20045;-95
2021/12/30 13:41:22;;;;;;;41.67;7.90;;;12.00;99.90;;;;;;4845221;29;20511;-96
2021/12/30 13:43:48;;;;;;;42.28;7.70;;;12.00;99.90;;;;;;4844803;29;20094;-92
2021/12/30 13:46:16;;;;;;;39.83;7.30;;;12.00;99.90;;;;;;4845490;29;20045;-94
2021/12/30 13:48:44;;;;;;;40.17;8.20;;;12.10;99.90;;;;;;4829699;29;20506;-96
2021/12/30 13:51:25;;;;;;;38.17;8.27;;;12.00;99.90;;;;;;4830256;29;20047;-94
2021/12/30 13:53:52;;;;;;;39.78;7.60;;;12.00;99.90;;;;;;4830202;29;20053;-94
2021/12/30 13:56:26;;;;;;;39.85;8.15;;;11.90;99.90;;;;;;4860227;29;20053;-93
2021/12/30 13:58:55;;;;;;;44.47;9.05;;;12.00;99.90;;;;;;4830284;29;20132;-96
2021/12/30 14:01:23;;;;;;;41.03;8.45;;;12.00;99.90;;;;;;4835206;29;20060;-94
2021/12/30 14:04:17;;;;;;;36.75;7.88;;;12.00;99.90;;;;;;4830185;29;20485;-95
2021/12/30 14:06:47;;;;;;;33.50;7.55;;;12.00;99.90;;;;;;4844801;29;20510;-94
2021/12/30 14:09:17;;;;;;;31.77;8.00;;;11.90;99.90;;;;;;4829426;29;20064;-91
2021/12/30 14:11:48;;;;;;;37.05;8.05;;;12.00;99.90;;;;;;4829858;29;20049;-93
2021/12/30 14:14:25;;;;;;;31.20;7.15;;;12.00;99.90;;;;;;4828857;29;20049;-94
2021/12/30 14:16:57;;;;;;;45.65;7.88;;;12.10;99.90;;;;;;4829211;29;20186;-92
2021/12/30 14:19:34;;;;;;;40.90;8.18;;;12.10;99.90;;;;;;4829039;29;20400;-92
2021/12/30 14:22:00;;;;;;;41.53;9.35;;;12.00;99.90;;;;;;4829256;29;20069;-94
2021/12/30 14:24:27;;;;;;;33.22;8.38;;;12.10;99.90;;;;;;4830046;29;20049;-95
2021/12/30 14:26:55;;;;;;;35.42;7.88;;;12.10;99.90;;;;;;4840781;29;20049;-94
2021/12/30 14:29:25;;;;;;;44.35;9.60;;;12.00;99.90;;;;;;4844840;29;20064;-95
2021/12/30 14:31:53;;;;;;;37.03;8.35;;;12.00;99.90;;;;;;4829295;29;20077;-94
2021/12/30 14:34:25;;;;;;;40.13;8.30;;;12.00;99.90;;;;;;4844375;29;20389;-94
2021/12/30 14:36:56;;;;;;;37.80;8.43;;;12.00;99.90;;;;;;4829121;29;20069;-92
2021/12/30 14:39:25;;;;;;;30.75;8.40;;;12.00;99.90;;;;;;4828903;29;20053;-93
2021/12/30 14:42:06;;;;;;;32.40;7.65;;;12.10;99.90;;;;;;4843987;29;20061;-93
2021/12/30 14:44:31;;;;;;;37.47;9.35;;;12.00;99.90;;;;;;4829569;29;20057;-94
2021/12/30 14:47:06;;;;;;;36.85;9.88;;;12.10;99.90;;;;;;4845201;29;20041;-93
2021/12/30 14:49:34;;;;;;;25.00;8.20;;;12.00;99.90;;;;;;4830208;29;20041;-94
2021/12/30 14:52:17;;;;;;;26.08;7.78;;;12.10;99.90;;;;;;4829978;29;20053;-93
2021/12/30 14:54:44;;;;;;;24.52;7.80;;;12.00;99.90;;;;;;4845277;29;20042;-94
2021/12/30 14:57:12;;;;;;;23.80;7.28;;;11.90;99.90;;;;;;4844955;29;20492;-94
2021/12/30 14:59:38;;;;;;;25.88;6.20;;;12.00;99.90;;;;;;4830304;29;20060;-93
2021/12/30 15:02:04;;;;;;;28.92;7.20;;;12.00;99.90;;;;;;4844861;29;20041;-93
2021/12/30 15:04:30;;;;;;;27.63;7.68;;;12.10;99.90;;;;;;4830197;29;20053;-94
2021/12/30 15:06:55;;;;;;;28.23;7.30;;;12.00;99.90;;;;;;4829978;29;20090;-93
2021/12/30 15:09:21;;;;;;;21.95;7.07;;;12.00;99.90;;;;;;4829272;29;20057;-92
2021/12/30 15:11:47;;;;;;;31.45;8.15;;;12.00;99.90;;;;;;4845335;29;20553;-93
2021/12/30 15:14:12;;;;;;;31.23;7.10;;;12.00;99.90;;;;;;4844958;29;20045;-93
2021/12/30 15:16:38;;;;;;;22.65;6.45;;;12.00;99.90;;;;;;4829820;29;20045;-93
2021/12/30 15:19:04;;;;;;;24.67;6.35;;;12.00;99.90;;;;;;4845178;29;20598;-94
2021/12/30 15:21:29;;;;;;;20.48;6.35;;;11.90;99.90;;;;;;4829873;29;20392;-93
2021/12/30 15:23:55;;;;;;;22.25;5.95;;;12.00;99.90;;;;;;4829936;29;20046;-94
2021/12/30 15:26:21;;;;;;;22.60;5.65;;;11.90;99.90;;;;;;4833847;29;20045;-94
2021/12/30 15:28:48;;;;;;;23.83;5.85;;;12.00;99.90;;;;;;4848288;29;20185;-93
2021/12/30 15:31:14;;;;;;;20.92;6.18;;;12.10;99.90;;;;;;4833423;29;20037;-93
2021/12/30 15:33:40;;;;;;;20.52;6.03;;;11.90;99.90;;;;;;4848284;29;20488;-92
2021/12/30 15:36:06;;;;;;;30.27;6.82;;;12.10;99.90;;;;;;4847231;29;20046;-92
2021/12/30 15:38:32;;;;;;;28.23;6.93;;;11.90;99.90;;;;;;4835472;29;20496;-93
2021/12/30 15:41:18;;;;;;;25.08;6.38;;;11.90;99.90;;;;;;4843154;29;20050;-95
2021/12/30 15:43:46;;;;;;;24.85;6.85;;;11.90;99.90;;;;;;4839436;29;20054;-93
2021/12/30 15:46:14;;;;;;;28.10;7.35;;;11.90;99.90;;;;;;4837531;29;20539;-94
2021/12/30 15:48:41;;;;;;;29.02;7.60;;;12.10;99.90;;;;;;4840757;29;20042;-93
2021/12/30 15:51:08;;;;;;;33.42;7.80;;;11.90;99.90;;;;;;4829494;29;20489;-94
2021/12/30 15:53:33;;;;;;;25.27;7.20;;;12.00;99.90;;;;;;4848400;29;20148;-93
2021/12/30 15:55:59;;;;;;;29.45;8.13;;;12.00;99.90;;;;;;4832924;29;20083;-94
2021/12/30 15:58:26;;;;;;;31.08;7.00;;;12.10;99.90;;;;;;4848218;29;20082;-93
2021/12/30 16:00:53;;;;;;;29.63;8.00;;;11.90;99.90;;;;;;4832374;29;20053;-94
2021/12/30 16:03:20;;;;;;;31.08;8.00;;;12.00;99.90;;;;;;4832775;29;20080;-94
2021/12/30 16:05:46;;;;;;;29.58;7.70;;;12.10;99.90;;;;;;4832235;29;20101;-94
2021/12/30 16:08:14;;;;;;;39.35;9.27;;;12.10;99.90;;;;;;4832360;29;20049;-94
2021/12/30 16:10:44;;;;;;;20.73;7.38;;;12.10;99.90;;;;;;4848112;29;20058;-96